Time;durP1;ratioP1;P1;durP2;ratioP2;P2;SDS_P1;SDS_P2;PMS_P1;PMS_P2;Temp;Humidity;BMP_temperature;BMP_pressure;BME280_temperature;BME280_humidity;BME280_pressure;Samples;Min_cycle;Max_cycle;Signal;HPM_P1;HPM_P2
2022/06/19 00:00:25;;;;;;;19.10;3.63;;;14.90;99.90;;;;;;5038112;28;20110;-76
2022/06/19 00:02:51;;;;;;;23.10;4.67;;;14.90;99.90;;;;;;5062063;28;20490;-75
2022/06/19 00:05:16;;;;;;;21.50;3.57;;;14.90;99.90;;;;;;5047164;28;20135;-77
2022/06/19 00:07:43;;;;;;;16.80;3.70;;;14.90;99.90;;;;;;5039335;28;20067;-76
2022/06/19 00:10:11;;;;;;;20.80;3.80;;;14.90;99.90;;;;;;5052851;28;20041;-76
2022/06/19 00:12:38;;;;;;;18.17;3.50;;;14.90;99.90;;;;;;5035951;28;20052;-77
2022/06/19 00:15:04;;;;;;;17.47;3.50;;;14.80;99.90;;;;;;5054807;28;20059;-75
2022/06/19 00:17:30;;;;;;;23.37;4.30;;;14.80;99.90;;;;;;5048591;28;20046;-74
2022/06/19 00:19:56;;;;;;;23.87;3.57;;;14.80;99.90;;;;;;5039210;28;20044;-76
2022/06/19 00:22:22;;;;;;;20.33;3.53;;;14.70;99.90;;;;;;5018571;28;20489;-76
2022/06/19 00:24:48;;;;;;;26.23;3.43;;;14.70;99.90;;;;;;5026554;28;20072;-76
2022/06/19 00:27:15;;;;;;;16.37;3.00;;;14.70;99.90;;;;;;5030385;28;20045;-77
2022/06/19 00:29:40;;;;;;;15.03;3.37;;;14.70;99.90;;;;;;5049047;28;20102;-80
2022/06/19 00:32:07;;;;;;;16.57;3.13;;;14.70;99.90;;;;;;5045955;28;20040;-75
2022/06/19 00:34:35;;;;;;;19.20;3.40;;;14.70;99.90;;;;;;5073981;28;20048;-76
2022/06/19 00:37:01;;;;;;;17.03;3.63;;;14.70;99.90;;;;;;5059139;28;20040;-76
2022/06/19 00:39:28;;;;;;;18.47;3.40;;;14.70;99.90;;;;;;5044002;28;20064;-76
2022/06/19 00:41:54;;;;;;;21.20;3.37;;;14.70;99.90;;;;;;5057190;28;20040;-75
2022/06/19 00:44:21;;;;;;;19.43;3.30;;;14.70;99.90;;;;;;5078598;28;20044;-77
2022/06/19 00:46:51;;;;;;;24.07;3.57;;;14.70;99.90;;;;;;5037253;28;20150;-75
2022/06/19 00:49:22;;;;;;;14.87;3.00;;;14.70;99.90;;;;;;5040282;28;20068;-75
2022/06/19 00:51:57;;;;;;;15.73;3.13;;;14.70;99.90;;;;;;5043012;28;20083;-78
2022/06/19 00:54:23;;;;;;;19.83;3.40;;;14.70;99.90;;;;;;5025272;28;20041;-78
2022/06/19 00:56:49;;;;;;;21.87;4.00;;;14.70;99.90;;;;;;5043295;28;20461;-76
2022/06/19 00:59:16;;;;;;;23.90;4.13;;;14.70;99.90;;;;;;5039426;28;20135;-77
2022/06/19 01:01:44;;;;;;;15.67;2.80;;;14.70;99.90;;;;;;5037491;28;20150;-76
2022/06/19 01:04:15;;;;;;;14.77;3.10;;;14.70;99.90;;;;;;5059900;28;20139;-75
2022/06/19 01:06:40;;;;;;;20.13;3.30;;;14.70;99.90;;;;;;5042461;28;20416;-75
2022/06/19 01:09:06;;;;;;;24.00;3.77;;;14.70;99.90;;;;;;5082412;28;20051;-77
2022/06/19 01:11:38;;;;;;;18.33;3.10;;;14.80;99.90;;;;;;5054947;28;20534;-77
2022/06/19 01:14:06;;;;;;;19.50;3.63;;;14.80;99.90;;;;;;5029284;28;20474;-74
2022/06/19 01:16:33;;;;;;;17.57;3.23;;;14.80;99.90;;;;;;5041154;28;20059;-76
2022/06/19 01:19:00;;;;;;;20.07;3.30;;;14.80;99.90;;;;;;5058404;28;20063;-76
2022/06/19 01:21:32;;;;;;;14.00;2.73;;;14.80;99.90;;;;;;5056449;28;20053;-77
2022/06/19 01:24:06;;;;;;;20.27;4.30;;;14.80;99.90;;;;;;5038007;28;20053;-74
2022/06/19 01:26:39;;;;;;;15.23;2.70;;;14.80;99.90;;;;;;5042877;28;20047;-77
2022/06/19 01:29:05;;;;;;;12.50;2.90;;;14.90;99.90;;;;;;5047433;28;20044;-77
2022/06/19 01:31:33;;;;;;;21.80;3.10;;;14.90;99.90;;;;;;5063064;28;20052;-78
2022/06/19 01:34:02;;;;;;;13.70;2.90;;;14.90;99.90;;;;;;5056107;28;20049;-79
2022/06/19 01:36:30;;;;;;;12.80;2.90;;;14.90;99.90;;;;;;5037328;28;20510;-79
2022/06/19 01:38:58;;;;;;;14.63;2.50;;;14.90;99.90;;;;;;5035601;28;20045;-75
2022/06/19 01:41:29;;;;;;;9.30;2.03;;;14.90;99.90;;;;;;5055469;28;20044;-77
2022/06/19 01:43:56;;;;;;;15.10;3.03;;;15.00;99.90;;;;;;5053879;28;20052;-76
2022/06/19 01:46:24;;;;;;;9.40;2.03;;;15.00;99.90;;;;;;5055240;28;20055;-76
2022/06/19 01:48:51;;;;;;;8.83;2.03;;;14.90;99.90;;;;;;5064569;28;20037;-76
2022/06/19 01:51:17;;;;;;;15.57;2.50;;;15.00;99.90;;;;;;5057688;28;20052;-76
2022/06/19 01:53:47;;;;;;;15.83;2.60;;;15.00;99.90;;;;;;5055476;28;20376;-75
2022/06/19 01:56:16;;;;;;;14.83;2.20;;;15.00;99.90;;;;;;5049464;28;20573;-76
2022/06/19 01:58:44;;;;;;;16.23;1.87;;;15.00;99.90;;;;;;5056614;28;20049;-76
2022/06/19 02:01:11;;;;;;;13.37;2.50;;;15.00;99.90;;;;;;5057904;28;20105;-78
2022/06/19 02:03:42;;;;;;;14.37;2.20;;;14.90;99.90;;;;;;5064286;28;20045;-75
2022/06/19 02:06:10;;;;;;;11.40;2.27;;;14.90;99.90;;;;;;5042074;28;20036;-77
2022/06/19 02:08:37;;;;;;;11.73;2.47;;;15.00;99.90;;;;;;5041765;28;20123;-76
2022/06/19 02:11:05;;;;;;;12.53;2.40;;;14.90;99.90;;;;;;5041634;28;20410;-76
2022/06/19 02:13:34;;;;;;;11.37;2.20;;;15.00;99.90;;;;;;5041264;28;20033;-76
2022/06/19 02:16:04;;;;;;;13.77;2.40;;;15.00;99.90;;;;;;5022908;28;20086;-76
2022/06/19 02:18:34;;;;;;;12.03;2.00;;;15.00;99.90;;;;;;5058373;28;20420;-77
2022/06/19 02:21:00;;;;;;;12.20;2.27;;;15.00;99.90;;;;;;5040260;28;20076;-76
2022/06/19 02:23:31;;;;;;;14.53;2.70;;;15.00;99.90;;;;;;5057251;28;20087;-76
2022/06/19 02:25:58;;;;;;;14.57;2.27;;;15.00;99.90;;;;;;5041284;28;20497;-76
2022/06/19 02:28:24;;;;;;;16.53;3.13;;;15.00;99.90;;;;;;5040076;28;20044;-76
2022/06/19 02:30:50;;;;;;;11.07;2.10;;;15.00;99.90;;;;;;5037021;28;20379;-79
2022/06/19 02:33:18;;;;;;;14.03;2.87;;;15.00;99.90;;;;;;5051870;28;20059;-75
2022/06/19 02:35:45;;;;;;;16.43;2.40;;;15.00;99.90;;;;;;5062029;28;20513;-77
2022/06/19 02:38:18;;;;;;;11.03;2.23;;;15.00;99.90;;;;;;5051157;28;20052;-76
2022/06/19 02:40:52;;;;;;;12.43;2.73;;;15.00;99.90;;;;;;5037618;28;20049;-77
2022/06/19 02:43:22;;;;;;;13.83;2.43;;;15.00;99.90;;;;;;5039124;28;20046;-77
2022/06/19 02:45:48;;;;;;;17.17;3.33;;;15.00;99.90;;;;;;5037970;28;20080;-78
2022/06/19 02:48:20;;;;;;;15.97;2.57;;;15.00;99.90;;;;;;5055535;28;20612;-78
2022/06/19 02:50:47;;;;;;;15.50;2.97;;;15.10;99.90;;;;;;5037640;28;20045;-77
2022/06/19 02:53:13;;;;;;;13.57;2.80;;;15.10;99.90;;;;;;5023332;28;20055;-77
2022/06/19 02:55:40;;;;;;;12.70;2.83;;;15.10;99.90;;;;;;5039168;28;20131;-77
2022/06/19 02:58:06;;;;;;;19.80;2.97;;;15.10;99.90;;;;;;5041219;28;20475;-78
2022/06/19 03:00:32;;;;;;;16.27;2.93;;;15.10;99.90;;;;;;5038450;28;20040;-78
2022/06/19 03:03:02;;;;;;;19.27;3.13;;;15.10;99.90;;;;;;5039790;28;20098;-78
2022/06/19 03:05:29;;;;;;;15.17;3.00;;;15.10;99.90;;;;;;5044199;28;20478;-80
2022/06/19 03:07:56;;;;;;;18.03;3.20;;;15.10;99.90;;;;;;5040792;28;20052;-78
2022/06/19 03:10:22;;;;;;;12.63;2.87;;;15.10;99.90;;;;;;5038176;28;20090;-76
2022/06/19 03:12:48;;;;;;;14.97;2.77;;;15.20;99.90;;;;;;5021373;28;20047;-77
2022/06/19 03:15:15;;;;;;;15.20;2.90;;;15.20;99.90;;;;;;5059001;28;20040;-78
2022/06/19 03:17:42;;;;;;;14.77;2.60;;;15.20;99.90;;;;;;5083137;28;20052;-77
2022/06/19 03:20:10;;;;;;;20.80;2.80;;;15.20;99.90;;;;;;5034633;28;20453;-78
2022/06/19 03:22:36;;;;;;;20.03;3.27;;;15.20;99.90;;;;;;5059671;28;20055;-82
2022/06/19 03:25:04;;;;;;;14.13;2.60;;;15.10;99.90;;;;;;5055250;28;20033;-76
2022/06/19 03:27:30;;;;;;;19.77;3.43;;;15.10;99.90;;;;;;5072278;28;20048;-75
2022/06/19 03:29:55;;;;;;;15.80;3.43;;;15.10;99.90;;;;;;5066279;28;20127;-78
2022/06/19 03:32:21;;;;;;;15.47;2.77;;;15.00;99.90;;;;;;5053630;28;20087;-76
2022/06/19 03:34:47;;;;;;;13.00;2.80;;;15.00;99.90;;;;;;5021189;28;20040;-77
2022/06/19 03:37:13;;;;;;;17.17;3.03;;;15.00;99.90;;;;;;5058395;28;20485;-76
2022/06/19 03:39:41;;;;;;;25.93;3.70;;;14.90;99.90;;;;;;5052965;28;20123;-77
2022/06/19 03:42:10;;;;;;;17.47;3.17;;;14.90;99.90;;;;;;5054698;28;20094;-76
2022/06/19 03:44:36;;;;;;;14.73;3.27;;;14.90;99.90;;;;;;5056303;28;20044;-79
2022/06/19 03:47:02;;;;;;;17.43;3.30;;;14.90;99.90;;;;;;5038702;28;20524;-77
2022/06/19 03:49:28;;;;;;;16.07;3.43;;;14.80;99.90;;;;;;5066424;28;20044;-77
2022/06/19 03:51:53;;;;;;;17.63;2.53;;;14.80;99.90;;;;;;5038123;28;20520;-78
2022/06/19 03:54:19;;;;;;;12.23;2.67;;;14.80;99.90;;;;;;5027613;28;20119;-77
2022/06/19 03:56:45;;;;;;;15.73;2.90;;;14.80;99.90;;;;;;5061405;28;20565;-80
2022/06/19 03:59:12;;;;;;;17.93;3.00;;;14.70;99.90;;;;;;5036009;28;20048;-78
2022/06/19 04:01:40;;;;;;;18.33;3.07;;;14.80;99.90;;;;;;5037634;28;20053;-76
2022/06/19 04:04:07;;;;;;;19.33;3.00;;;14.80;99.90;;;;;;5047289;28;20458;-77
2022/06/19 04:06:35;;;;;;;17.00;3.40;;;14.80;99.90;;;;;;5056070;28;20127;-77
2022/06/19 04:09:02;;;;;;;14.00;3.20;;;14.70;99.90;;;;;;5041012;28;20036;-76
2022/06/19 04:11:29;;;;;;;20.47;3.40;;;14.60;99.90;;;;;;5054141;28;20166;-76
2022/06/19 04:13:56;;;;;;;17.73;3.70;;;14.60;99.90;;;;;;5031261;28;20049;-80
2022/06/19 04:16:25;;;;;;;18.87;3.17;;;14.50;99.90;;;;;;5036800;28;20037;-79
2022/06/19 04:18:53;;;;;;;15.53;2.87;;;14.50;99.90;;;;;;5039536;28;20040;-76
2022/06/19 04:21:21;;;;;;;20.07;3.83;;;14.50;99.90;;;;;;5056783;28;20450;-77
2022/06/19 04:23:49;;;;;;;18.10;3.13;;;14.50;99.90;;;;;;5041044;28;20135;-78
2022/06/19 04:26:16;;;;;;;12.67;2.60;;;14.60;99.90;;;;;;5039182;28;20036;-76
2022/06/19 04:28:43;;;;;;;13.50;2.87;;;14.60;99.90;;;;;;5038592;28;20067;-77
2022/06/19 04:31:09;;;;;;;14.20;3.10;;;14.60;99.90;;;;;;5044039;28;20588;-76
2022/06/19 04:33:39;;;;;;;12.40;2.97;;;14.70;99.90;;;;;;5046400;28;20498;-76
2022/06/19 04:36:06;;;;;;;13.63;2.40;;;14.60;99.90;;;;;;5059865;28;20055;-76
2022/06/19 04:38:32;;;;;;;11.80;2.80;;;14.60;99.90;;;;;;5025922;28;20131;-76
2022/06/19 04:40:58;;;;;;;10.40;2.10;;;14.60;99.90;;;;;;5037568;28;20075;-76
2022/06/19 04:43:23;;;;;;;15.13;2.37;;;14.60;99.90;;;;;;5036737;28;20041;-78
2022/06/19 04:45:49;;;;;;;10.93;2.33;;;14.60;99.90;;;;;;5054007;28;20113;-76
2022/06/19 04:48:15;;;;;;;12.97;2.30;;;14.60;99.90;;;;;;5053961;28;20040;-76
2022/06/19 04:50:43;;;;;;;11.37;2.20;;;14.70;99.90;;;;;;5059941;28;20044;-77
2022/06/19 04:53:08;;;;;;;16.83;2.60;;;14.70;99.90;;;;;;5057922;28;20066;-77
2022/06/19 04:55:34;;;;;;;10.53;2.07;;;14.70;99.90;;;;;;5042349;28;20041;-75
2022/06/19 04:58:01;;;;;;;15.27;2.50;;;14.80;99.90;;;;;;5038703;28;20033;-76
2022/06/19 05:00:27;;;;;;;19.47;3.03;;;14.80;99.90;;;;;;5043968;28;20040;-76
2022/06/19 05:02:53;;;;;;;12.17;2.07;;;14.80;99.90;;;;;;5066467;28;20401;-77
2022/06/19 05:05:21;;;;;;;13.97;2.40;;;14.90;99.90;;;;;;5023017;28;20044;-78
2022/06/19 05:07:48;;;;;;;9.33;2.20;;;14.90;99.90;;;;;;5059531;28;20565;-77
2022/06/19 05:10:14;;;;;;;9.63;2.30;;;15.00;99.90;;;;;;5054969;28;20056;-79
2022/06/19 05:12:40;;;;;;;10.50;2.30;;;15.10;99.90;;;;;;5039241;28;20528;-77
2022/06/19 05:15:07;;;;;;;15.37;2.43;;;15.10;99.90;;;;;;5024390;28;20040;-78
2022/06/19 05:17:33;;;;;;;9.70;1.77;;;15.20;99.90;;;;;;5055224;28;20118;-78
2022/06/19 05:19:59;;;;;;;8.90;1.93;;;15.20;99.90;;;;;;5036859;28;20040;-77
2022/06/19 05:22:25;;;;;;;11.37;2.40;;;15.20;99.90;;;;;;5041890;28;20395;-76
2022/06/19 05:24:52;;;;;;;10.60;2.00;;;15.30;99.90;;;;;;5041150;28;20044;-78
2022/06/19 05:27:18;;;;;;;7.23;1.97;;;15.30;99.90;;;;;;5043234;28;20052;-78
2022/06/19 05:29:44;;;;;;;7.20;1.70;;;15.30;99.90;;;;;;5059209;28;20075;-79
2022/06/19 05:32:09;;;;;;;10.93;2.20;;;15.30;99.90;;;;;;5056707;28;20040;-78
2022/06/19 05:34:37;;;;;;;11.20;2.33;;;15.30;99.90;;;;;;5056279;28;20494;-78
2022/06/19 05:37:04;;;;;;;10.30;2.20;;;15.40;99.90;;;;;;5022746;28;20040;-76
2022/06/19 05:39:30;;;;;;;12.33;2.37;;;15.40;99.90;;;;;;5033834;28;20049;-78
2022/06/19 05:41:57;;;;;;;13.03;2.93;;;15.40;99.90;;;;;;5068360;28;20135;-78
2022/06/19 05:44:23;;;;;;;19.87;3.73;;;15.30;99.90;;;;;;5025986;28;20048;-76
2022/06/19 05:46:50;;;;;;;18.43;3.00;;;15.20;99.90;;;;;;5055332;28;20052;-75
2022/06/19 05:49:16;;;;;;;11.53;2.77;;;15.20;99.90;;;;;;5056838;28;20067;-76
2022/06/19 05:51:42;;;;;;;12.57;2.83;;;15.10;99.90;;;;;;5039629;28;20044;-77
2022/06/19 05:54:08;;;;;;;16.13;3.00;;;15.10;99.90;;;;;;5050951;28;20033;-75
2022/06/19 05:56:34;;;;;;;18.77;3.53;;;15.10;99.90;;;;;;5045571;28;20041;-76
2022/06/19 05:59:01;;;;;;;16.10;2.93;;;15.10;99.90;;;;;;5055716;28;20063;-78
2022/06/19 06:01:29;;;;;;;16.20;2.53;;;15.10;99.90;;;;;;5024365;28;20044;-77
2022/06/19 06:03:55;;;;;;;12.70;2.77;;;15.10;99.90;;;;;;5023425;28;20059;-79
2022/06/19 06:06:22;;;;;;;14.67;2.30;;;15.20;99.90;;;;;;5041386;28;20454;-76
2022/06/19 06:08:49;;;;;;;14.77;2.93;;;15.30;99.90;;;;;;5034249;28;20044;-77
2022/06/19 06:11:15;;;;;;;10.97;2.50;;;15.30;99.90;;;;;;5064970;28;20041;-78
2022/06/19 06:13:41;;;;;;;15.40;2.90;;;15.30;99.90;;;;;;5058133;28;20098;-78
2022/06/19 06:16:10;;;;;;;12.70;2.47;;;15.20;99.90;;;;;;5031014;28;20395;-79
2022/06/19 06:18:36;;;;;;;17.07;2.53;;;15.20;99.90;;;;;;5042223;28;20063;-79
2022/06/19 06:21:04;;;;;;;15.43;2.37;;;15.20;99.90;;;;;;5040429;28;20052;-76
2022/06/19 06:23:31;;;;;;;14.77;3.23;;;15.20;99.90;;;;;;5057375;28;20052;-76
2022/06/19 06:25:58;;;;;;;11.87;2.40;;;15.10;99.90;;;;;;5038853;28;20068;-77
2022/06/19 06:28:24;;;;;;;12.90;2.57;;;15.10;99.90;;;;;;5060672;28;20506;-79
2022/06/19 06:30:50;;;;;;;12.07;2.87;;;15.10;99.90;;;;;;5030561;28;20045;-77
2022/06/19 06:33:17;;;;;;;14.67;2.40;;;15.00;99.90;;;;;;5040505;28;20040;-76
2022/06/19 06:35:42;;;;;;;19.77;3.13;;;15.00;99.90;;;;;;5045114;28;20468;-75
2022/06/19 06:38:08;;;;;;;12.40;2.47;;;15.00;99.90;;;;;;5050620;28;20072;-75
2022/06/19 06:40:34;;;;;;;16.57;3.10;;;15.00;99.90;;;;;;5055309;28;20050;-76
2022/06/19 06:42:59;;;;;;;15.93;2.47;;;15.00;99.90;;;;;;5039707;28;20079;-76
2022/06/19 06:45:25;;;;;;;15.17;2.97;;;14.90;99.90;;;;;;5057499;28;20040;-78
2022/06/19 06:47:51;;;;;;;16.30;2.83;;;14.90;99.90;;;;;;5024295;28;20072;-79
2022/06/19 06:50:19;;;;;;;13.73;2.37;;;14.90;99.90;;;;;;5036356;28;20135;-77
2022/06/19 06:52:45;;;;;;;16.77;2.97;;;14.90;99.90;;;;;;5054618;28;20044;-76
2022/06/19 06:55:11;;;;;;;13.70;2.63;;;14.90;99.90;;;;;;5044116;28;20124;-77
2022/06/19 06:57:38;;;;;;;13.87;2.60;;;14.90;99.90;;;;;;5053658;28;20438;-78
2022/06/19 07:00:05;;;;;;;16.60;3.10;;;14.90;99.90;;;;;;5076082;28;20399;-77
2022/06/19 07:02:31;;;;;;;12.80;2.27;;;14.80;99.90;;;;;;5055428;28;20055;-77
2022/06/19 07:04:57;;;;;;;13.10;2.70;;;14.80;99.90;;;;;;5052765;28;20048;-76
2022/06/19 07:07:24;;;;;;;14.33;2.77;;;14.80;99.90;;;;;;5056576;28;20048;-77
2022/06/19 07:09:50;;;;;;;14.27;2.80;;;14.90;99.90;;;;;;5029626;28;20048;-79
2022/06/19 07:12:16;;;;;;;10.77;2.17;;;14.90;99.90;;;;;;5045807;28;20060;-80
2022/06/19 07:14:42;;;;;;;15.03;2.77;;;15.00;99.90;;;;;;5070878;28;20402;-76
2022/06/19 07:17:08;;;;;;;14.63;2.83;;;15.00;99.90;;;;;;5059537;28;20044;-77
2022/06/19 07:19:34;;;;;;;13.60;2.87;;;15.10;99.90;;;;;;5033197;28;20490;-78
2022/06/19 07:22:00;;;;;;;14.13;2.80;;;15.20;99.90;;;;;;5053740;28;20041;-75
2022/06/19 07:24:27;;;;;;;14.47;2.63;;;15.30;99.90;;;;;;5052209;28;20139;-76
2022/06/19 07:26:53;;;;;;;15.00;2.70;;;15.40;99.90;;;;;;5051394;28;20053;-75
2022/06/19 07:29:19;;;;;;;13.90;3.07;;;15.40;99.90;;;;;;5049754;28;20450;-79
2022/06/19 07:31:44;;;;;;;13.47;2.47;;;15.40;99.90;;;;;;5016341;28;20243;-78
2022/06/19 07:34:10;;;;;;;15.37;3.17;;;15.40;99.90;;;;;;5053389;28;20131;-76
2022/06/19 07:36:36;;;;;;;13.60;2.50;;;15.40;99.90;;;;;;5048626;28;20039;-79
2022/06/19 07:39:03;;;;;;;17.70;2.30;;;15.40;99.90;;;;;;5071711;28;20033;-76
2022/06/19 07:41:30;;;;;;;13.90;2.93;;;15.50;99.90;;;;;;5040301;28;20055;-77
2022/06/19 07:43:56;;;;;;;14.40;2.70;;;15.40;99.90;;;;;;5028651;28;20399;-77
2022/06/19 07:46:23;;;;;;;13.80;2.43;;;15.40;99.90;;;;;;5041988;28;20094;-78
2022/06/19 07:51:34;;;;;;;11.53;2.90;;;15.40;99.90;;;;;;5043837;28;20088;-77
2022/06/19 07:54:01;;;;;;;17.00;2.60;;;15.30;99.90;;;;;;5028365;28;20067;-79
2022/06/19 07:56:27;;;;;;;14.77;2.80;;;15.30;99.90;;;;;;5031931;28;20044;-79
2022/06/19 07:58:54;;;;;;;17.10;2.60;;;15.30;99.90;;;;;;5039994;28;20051;-79
2022/06/19 08:01:20;;;;;;;15.97;2.77;;;15.40;99.90;;;;;;5024240;28;20207;-79
2022/06/19 08:03:46;;;;;;;11.67;2.83;;;15.40;99.90;;;;;;5028129;28;20500;-78
2022/06/19 08:06:13;;;;;;;13.13;2.40;;;15.40;99.90;;;;;;5040387;28;20046;-79
2022/06/19 08:08:39;;;;;;;15.70;3.77;;;15.40;99.90;;;;;;5044968;28;20044;-79
2022/06/19 08:11:04;;;;;;;11.17;2.87;;;15.40;99.90;;;;;;5026352;28;20048;-79
2022/06/19 08:13:31;;;;;;;15.27;2.80;;;15.40;99.90;;;;;;5033746;28;20044;-79
2022/06/19 08:16:02;;;;;;;16.97;2.77;;;15.50;99.90;;;;;;5013439;28;20033;-78
2022/06/19 08:18:28;;;;;;;11.17;2.90;;;15.50;99.90;;;;;;5034071;28;20063;-79
2022/06/19 08:20:54;;;;;;;11.70;3.07;;;15.50;99.90;;;;;;5031200;28;20036;-79
2022/06/19 08:23:20;;;;;;;11.53;2.47;;;15.60;99.90;;;;;;5008431;28;20048;-79
2022/06/19 08:25:47;;;;;;;10.20;2.60;;;15.60;99.90;;;;;;5059146;28;20040;-79
2022/06/19 08:28:14;;;;;;;16.70;3.47;;;15.70;99.90;;;;;;5022727;28;20200;-78
2022/06/19 08:30:42;;;;;;;13.87;2.70;;;15.80;99.90;;;;;;5052375;28;20040;-79
2022/06/19 08:33:10;;;;;;;15.87;2.70;;;15.90;99.90;;;;;;5024690;28;20391;-79
2022/06/19 08:35:38;;;;;;;10.57;2.20;;;16.00;99.90;;;;;;5040795;28;20562;-79
2022/06/19 08:38:08;;;;;;;13.43;2.50;;;16.10;99.90;;;;;;5037849;28;20045;-78
2022/06/19 08:40:46;;;;;;;13.90;2.37;;;16.10;99.90;;;;;;5023104;28;20422;-79
2022/06/19 08:43:30;;;;;;;15.10;3.33;;;16.10;99.90;;;;;;5062730;28;20048;-77
2022/06/19 08:46:08;;;;;;;14.57;3.25;;;16.20;99.90;;;;;;5035826;28;20127;-78
2022/06/19 08:48:53;;;;;;;16.90;3.77;;;16.20;99.90;;;;;;5019745;28;20040;-79
2022/06/19 08:51:28;;;;;;;13.87;3.23;;;16.20;99.90;;;;;;5031310;28;20057;-80
2022/06/19 08:54:22;;;;;;;14.67;3.30;;;16.10;99.90;;;;;;5027582;28;20041;-81
2022/06/19 08:56:57;;;;;;;17.60;3.38;;;16.10;99.90;;;;;;5016602;28;20040;-77
2022/06/19 08:59:32;;;;;;;11.50;2.60;;;16.00;99.90;;;;;;5028962;28;20114;-78
2022/06/19 09:02:05;;;;;;;14.80;2.40;;;15.90;99.90;;;;;;5033306;28;20056;-78
2022/06/19 09:07:42;;;;;;;10.53;2.43;;;15.90;99.90;;;;;;5058750;28;20098;-78
2022/06/19 09:10:22;;;;;;;17.10;2.93;;;15.80;99.90;;;;;;5017636;28;20205;-79
2022/06/19 09:13:00;;;;;;;15.63;3.00;;;15.80;99.90;;;;;;5061532;28;20479;-79
2022/06/19 09:15:33;;;;;;;16.07;3.23;;;15.90;99.90;;;;;;5063933;28;20097;-78
2022/06/19 09:18:02;;;;;;;19.70;4.30;;;15.90;99.90;;;;;;5042841;28;20040;-77
2022/06/19 09:20:40;;;;;;;15.30;4.40;;;15.90;99.90;;;;;;5012750;28;20047;-78
2022/06/19 09:23:19;;;;;;;16.97;3.47;;;15.90;99.90;;;;;;5032641;28;20140;-77
2022/06/19 09:25:53;;;;;;;16.07;2.90;;;15.90;99.90;;;;;;5041850;28;20979;-77
2022/06/19 09:28:27;;;;;;;10.48;2.53;;;16.00;99.90;;;;;;5047514;28;20052;-79
2022/06/19 09:30:57;;;;;;;18.40;2.90;;;16.00;99.90;;;;;;5034681;28;20095;-77
2022/06/19 09:33:29;;;;;;;14.10;2.80;;;16.10;99.90;;;;;;5030115;28;20097;-78
2022/06/19 09:36:02;;;;;;;11.37;2.43;;;16.10;99.90;;;;;;5026016;28;20537;-79
2022/06/19 09:38:36;;;;;;;11.53;2.33;;;16.10;99.90;;;;;;5043528;28;20064;-78
2022/06/19 09:41:04;;;;;;;;;;;16.10;99.90;;;;;;5060084;28;20047;-76
2022/06/19 09:43:35;;;;;;;13.47;2.70;;;16.10;99.90;;;;;;5041922;28;20448;-77
2022/06/19 09:46:05;;;;;;;15.53;2.37;;;16.20;99.90;;;;;;5035085;28;20486;-77
2022/06/19 09:48:38;;;;;;;20.23;3.03;;;16.30;99.90;;;;;;5025157;28;20459;-78
2022/06/19 09:51:12;;;;;;;16.95;2.70;;;16.40;99.90;;;;;;5053448;28;20154;-77
2022/06/19 09:53:44;;;;;;;11.70;2.40;;;16.50;99.90;;;;;;5038318;28;20136;-77
2022/06/19 09:56:15;;;;;;;10.53;2.30;;;16.60;99.90;;;;;;5035018;28;20040;-77
2022/06/19 09:58:47;;;;;;;16.87;2.50;;;16.60;99.90;;;;;;5050271;28;20139;-76
2022/06/19 10:01:13;;;;;;;10.80;2.20;;;16.70;99.90;;;;;;5051070;28;20044;-78
2022/06/19 10:03:43;;;;;;;12.27;2.93;;;16.80;99.90;;;;;;5025405;28;20048;-76
2022/06/19 10:06:12;;;;;;;17.23;3.00;;;16.90;99.90;;;;;;5046043;28;20036;-77
2022/06/19 10:08:44;;;;;;;12.27;2.67;;;16.90;99.90;;;;;;5025899;28;20056;-79
2022/06/19 10:11:13;;;;;;;10.67;2.37;;;17.00;99.90;;;;;;5039232;28;20037;-78
2022/06/19 10:13:46;;;;;;;12.57;2.63;;;17.10;99.90;;;;;;5046390;28;20106;-77
2022/06/19 10:16:19;;;;;;;13.63;3.27;;;17.20;99.90;;;;;;5043952;28;20052;-78
2022/06/19 10:18:51;;;;;;;12.23;2.67;;;17.20;99.90;;;;;;5028535;28;20493;-77
2022/06/19 10:24:18;;;;;;;9.67;2.40;;;17.40;99.90;;;;;;5047099;28;20720;-76
2022/06/19 10:26:49;;;;;;;9.83;2.60;;;17.60;99.90;;;;;;5051400;28;20040;-77
2022/06/19 10:29:36;;;;;;;9.37;2.20;;;17.70;99.90;;;;;;5042019;28;20052;-78
2022/06/19 10:32:22;;;;;;;9.10;2.10;;;17.70;99.90;;;;;;5018498;28;20036;-79
2022/06/19 10:35:00;;;;;;;11.97;2.27;;;17.60;99.90;;;;;;5053478;28;20447;-78
2022/06/19 10:37:38;;;;;;;10.63;2.23;;;17.70;99.90;;;;;;5025183;28;20568;-79
2022/06/19 10:40:21;;;;;;;11.63;2.57;;;17.80;99.90;;;;;;5033241;28;20076;-76
2022/06/19 10:43:00;;;;;;;12.10;2.40;;;17.80;99.90;;;;;;5030271;28;20045;-76
2022/06/19 10:45:47;;;;;;;7.60;1.90;;;17.70;99.90;;;;;;5062782;28;20520;-77
2022/06/19 10:48:27;;;;;;;9.97;2.33;;;17.60;99.90;;;;;;5045476;28;20080;-78
2022/06/19 10:51:07;;;;;;;14.50;2.10;;;17.60;99.90;;;;;;5034816;28;20044;-77
2022/06/19 10:54:06;;;;;;;9.60;1.97;;;17.60;99.90;;;;;;5030988;28;20068;-77
2022/06/19 10:56:41;;;;;;;12.00;2.03;;;17.60;99.90;;;;;;5057264;28;20433;-77
2022/06/19 10:59:07;;;;;;;8.20;2.07;;;17.70;99.90;;;;;;5049110;28;20044;-79
2022/06/19 11:04:30;;;;;;;7.77;2.23;;;17.70;99.90;;;;;;5065038;28;20037;-78
2022/06/19 11:07:02;;;;;;;7.83;1.43;;;17.70;99.90;;;;;;5041993;28;20048;-77
2022/06/19 11:09:39;;;;;;;11.50;2.07;;;17.80;99.90;;;;;;5037798;28;20123;-79
2022/06/19 11:12:10;;;;;;;7.07;1.60;;;17.80;99.90;;;;;;5040327;28;20119;-76
2022/06/19 11:14:44;;;;;;;9.00;1.80;;;17.80;99.90;;;;;;5051466;28;20444;-77
2022/06/19 11:17:15;;;;;;;12.23;2.35;;;17.70;99.90;;;;;;5037188;28;20056;-78
2022/06/19 11:19:42;;;;;;;13.80;2.60;;;17.50;99.90;;;;;;5035719;28;20119;-78
2022/06/19 11:22:27;;;;;;;8.67;2.47;;;17.50;99.90;;;;;;5064090;28;20066;-77
2022/06/19 11:24:55;;;;;;;9.10;2.10;;;17.40;99.90;;;;;;5042414;28;20450;-80
2022/06/19 11:27:25;;;;;;;7.97;2.20;;;17.30;99.90;;;;;;5035126;28;20040;-79
2022/06/19 11:29:55;;;;;;;8.33;1.50;;;17.20;99.90;;;;;;5039503;28;20045;-80
2022/06/19 11:32:22;;;;;;;10.37;1.90;;;17.20;99.90;;;;;;5041936;28;20047;-78
2022/06/19 11:34:57;;;;;;;5.73;1.43;;;17.30;99.90;;;;;;5013020;28;20415;-78
2022/06/19 11:37:28;;;;;;;6.43;1.30;;;17.30;99.90;;;;;;5048247;28;20049;-80
2022/06/19 11:40:11;;;;;;;7.37;1.47;;;17.30;99.90;;;;;;5042043;28;20087;-80
2022/06/19 11:42:45;;;;;;;6.13;1.37;;;17.40;99.90;;;;;;5029391;28;20048;-78
2022/06/19 11:45:23;;;;;;;8.50;1.63;;;17.40;99.90;;;;;;5058366;28;20051;-78
2022/06/19 11:48:00;;;;;;;9.07;1.63;;;17.40;99.90;;;;;;5045009;28;20151;-78
2022/06/19 11:50:37;;;;;;;6.23;1.27;;;17.30;99.90;;;;;;5046063;28;20048;-77
2022/06/19 11:53:14;;;;;;;7.23;1.60;;;17.40;99.90;;;;;;5012475;28;20044;-78
2022/06/19 11:55:43;;;;;;;6.83;1.50;;;17.40;99.90;;;;;;5075462;28;20029;-80
2022/06/19 11:58:21;;;;;;;7.40;1.40;;;17.30;99.90;;;;;;5033094;28;20063;-82
2022/06/19 12:01:06;;;;;;;7.43;1.73;;;17.20;99.90;;;;;;5027827;28;20037;-76
2022/06/19 12:03:39;;;;;;;8.67;1.80;;;17.10;99.90;;;;;;5039506;28;20045;-79
2022/06/19 12:06:08;;;;;;;7.00;1.43;;;17.00;99.90;;;;;;5067951;28;20099;-75
2022/06/19 12:08:38;;;;;;;7.60;1.60;;;17.00;99.90;;;;;;5046514;28;20051;-78
2022/06/19 12:11:08;;;;;;;5.57;1.57;;;17.00;99.90;;;;;;5025489;28;20084;-76
2022/06/19 12:13:37;;;;;;;5.77;1.33;;;17.00;99.90;;;;;;5037196;28;20048;-79
2022/06/19 12:16:10;;;;;;;5.27;1.27;;;16.90;99.90;;;;;;5037780;28;20048;-76
2022/06/19 12:18:36;;;;;;;7.57;1.85;;;16.90;99.90;;;;;;5040734;28;20048;-77
2022/06/19 12:21:16;;;;;;;8.13;1.20;;;16.90;99.90;;;;;;5056516;28;20060;-77
2022/06/19 12:23:53;;;;;;;5.17;1.50;;;17.00;99.90;;;;;;5073396;28;20135;-76
2022/06/19 12:26:27;;;;;;;6.80;1.30;;;17.20;99.90;;;;;;5024365;28;20044;-79
2022/06/19 12:28:56;;;;;;;9.37;1.70;;;17.30;99.90;;;;;;5073140;28;20048;-78
2022/06/19 12:31:27;;;;;;;8.83;1.60;;;17.50;99.90;;;;;;5075769;28;20050;-79
2022/06/19 12:33:56;;;;;;;8.07;1.77;;;17.90;99.90;;;;;;5028541;28;20040;-79
2022/06/19 12:36:26;;;;;;;6.03;1.63;;;18.50;99.90;;;;;;5047341;28;20041;-78
2022/06/19 12:38:52;;;;;;;3.83;1.30;;;19.20;99.90;;;;;;5031683;28;20071;-78
2022/06/19 12:41:34;;;;;;;4.47;1.23;;;19.60;99.90;;;;;;5028038;28;20590;-78
2022/06/19 12:44:10;;;;;;;6.00;1.33;;;20.10;99.90;;;;;;5057624;28;20081;-78
2022/06/19 12:47:05;;;;;;;6.50;1.20;;;20.50;99.90;;;;;;5044396;28;20068;-78
2022/06/19 12:49:38;;;;;;;;;;;21.00;99.90;;;;;;5026371;28;20041;-76
2022/06/19 12:52:18;;;;;;;4.40;1.08;;;21.20;99.90;;;;;;5029352;28;19920;-76
2022/06/19 12:55:09;;;;;;;7.40;1.27;;;21.00;99.90;;;;;;5044897;28;20215;-78
2022/06/19 12:57:52;;;;;;;5.63;1.10;;;20.70;99.90;;;;;;5060155;28;20044;-79
2022/06/19 13:00:26;;;;;;;6.38;1.17;;;20.40;99.90;;;;;;5045652;28;20309;-78